Time;durP1;ratioP1;P1;durP2;ratioP2;P2;SDS_P1;SDS_P2;PMS_P1;PMS_P2;Temp;Humidity;BMP_temperature;BMP_pressure;BME280_temperature;BME280_humidity;BME280_pressure;Samples;Min_cycle;Max_cycle;Signal;HPM_P1;HPM_P2
2023/04/11 00:01:45;;;;;;;42.85;6.93;;;;;;;9.30;100.00;100888.09;5045458;28;20040;-62
2023/04/11 00:04:11;;;;;;;40.90;6.05;;;;;;;9.28;100.00;100876.78;5046472;28;20707;-62
2023/04/11 00:06:36;;;;;;;44.95;6.20;;;;;;;9.31;100.00;100879.31;5046704;28;20021;-60
2023/04/11 00:09:02;;;;;;;39.03;4.60;;;;;;;9.30;100.00;100887.25;5046884;28;20452;-63
2023/04/11 00:11:27;;;;;;;34.20;5.50;;;;;;;9.29;100.00;100891.63;5046887;28;20040;-60
2023/04/11 00:13:56;;;;;;;35.55;5.05;;;;;;;9.19;100.00;100887.53;5045904;28;20053;-60
2023/04/11 00:16:23;;;;;;;36.15;4.55;;;;;;;9.27;100.00;100888.19;5028426;28;20040;-59
2023/04/11 00:18:49;;;;;;;33.60;4.95;;;;;;;9.26;100.00;100882.97;5047699;28;20017;-62
2023/04/11 00:21:14;;;;;;;30.92;4.95;;;;;;;9.22;100.00;100884.81;5047168;28;20084;-60
2023/04/11 00:23:40;;;;;;;28.40;5.40;;;;;;;9.24;100.00;100885.63;5046460;28;20037;-60
2023/04/11 00:26:05;;;;;;;39.13;5.68;;;;;;;9.30;100.00;100890.72;5029341;28;20031;-60
2023/04/11 00:28:31;;;;;;;27.92;3.97;;;;;;;9.33;100.00;100885.38;5046360;28;20025;-62
2023/04/11 00:30:56;;;;;;;25.13;3.97;;;;;;;9.35;100.00;100888.84;5046135;28;20021;-61
2023/04/11 00:33:21;;;;;;;27.63;4.53;;;;;;;9.20;100.00;100871.72;5046034;28;20383;-62
2023/04/11 00:35:47;;;;;;;45.25;4.90;;;;;;;9.29;100.00;100886.38;5046320;28;20495;-61
2023/04/11 00:38:12;;;;;;;26.42;4.55;;;;;;;9.37;100.00;100896.69;5046349;28;20079;-60
2023/04/11 00:40:37;;;;;;;30.42;4.38;;;;;;;9.39;100.00;100894.84;5046509;28;20025;-60
2023/04/11 00:43:03;;;;;;;26.83;4.10;;;;;;;9.48;100.00;100902.50;5046499;28;20053;-60
2023/04/11 00:45:28;;;;;;;25.17;4.88;;;;;;;9.50;100.00;100907.72;5045986;28;20021;-61
2023/04/11 00:47:53;;;;;;;25.38;3.45;;;;;;;9.54;100.00;100896.19;5046027;28;20108;-60
2023/04/11 00:50:21;;;;;;;28.88;3.15;;;;;;;9.64;100.00;100898.56;5046426;28;20487;-61
2023/04/11 00:52:47;;;;;;;29.65;3.75;;;;;;;9.68;100.00;100913.34;5049327;28;20021;-60
2023/04/11 00:55:13;;;;;;;25.67;3.65;;;;;;;9.74;100.00;100902.66;5050396;28;20054;-60
2023/04/11 00:57:38;;;;;;;24.42;3.60;;;;;;;9.84;100.00;100901.47;5032352;28;20021;-61
2023/04/11 01:00:04;;;;;;;22.02;4.38;;;;;;;9.90;100.00;100900.41;5050359;28;20057;-62
2023/04/11 01:02:30;;;;;;;23.27;3.45;;;;;;;9.91;100.00;100901.28;5048878;28;20412;-60
2023/04/11 01:04:56;;;;;;;29.02;4.05;;;;;;;9.94;100.00;100901.19;5050649;28;20036;-61
2023/04/11 01:07:22;;;;;;;30.67;4.32;;;;;;;9.92;100.00;100900.38;5031968;28;20041;-60
2023/04/11 01:09:48;;;;;;;25.20;4.07;;;;;;;9.82;100.00;100900.66;5050470;28;20380;-60
2023/04/11 01:12:15;;;;;;;26.10;3.38;;;;;;;9.81;100.00;100905.97;5049984;28;20378;-60
2023/04/11 01:14:40;;;;;;;22.02;3.35;;;;;;;9.82;100.00;100908.53;5032350;28;20032;-60
2023/04/11 01:17:06;;;;;;;19.98;2.85;;;;;;;9.91;100.00;100899.53;5049249;28;20029;-59
2023/04/11 01:19:32;;;;;;;22.30;2.97;;;;;;;9.79;100.00;100919.19;5049529;28;20055;-61
2023/04/11 01:21:58;;;;;;;25.42;4.10;;;;;;;9.88;100.00;100911.91;5050130;28;20475;-60
2023/04/11 01:24:23;;;;;;;17.45;2.85;;;;;;;9.85;100.00;100902.34;5048618;28;20120;-60
2023/04/11 01:26:49;;;;;;;17.08;2.92;;;;;;;9.85;100.00;100918.97;5049921;28;20041;-59
2023/04/11 01:29:14;;;;;;;12.88;2.78;;;;;;;9.97;100.00;100928.28;5049507;28;20032;-59
2023/04/11 01:31:40;;;;;;;11.05;2.00;;;;;;;10.00;100.00;100911.56;5048572;28;20411;-59
2023/04/11 01:34:06;;;;;;;14.38;2.65;;;;;;;9.86;100.00;100930.38;5049247;28;20029;-58
2023/04/11 01:36:31;;;;;;;14.55;2.20;;;;;;;9.89;100.00;100917.13;5031226;28;20111;-61
2023/04/11 01:38:57;;;;;;;14.77;2.08;;;;;;;9.74;100.00;100915.81;5032086;28;20183;-61
2023/04/11 01:41:24;;;;;;;15.25;2.47;;;;;;;9.68;100.00;100913.34;5030568;28;20029;-61
2023/04/11 01:43:49;;;;;;;11.82;1.95;;;;;;;9.57;100.00;100935.56;5050004;28;20206;-60
2023/04/11 01:46:15;;;;;;;11.82;1.95;;;;;;;9.48;100.00;100926.16;5030628;28;20104;-61
2023/04/11 01:48:41;;;;;;;9.38;1.80;;;;;;;9.51;100.00;100930.47;5032440;28;20024;-62
2023/04/11 01:51:07;;;;;;;13.40;2.42;;;;;;;9.46;100.00;100938.50;5048724;28;20025;-61
2023/04/11 01:53:32;;;;;;;11.90;2.05;;;;;;;9.46;100.00;100933.22;5049729;28;20486;-60
2023/04/11 01:55:57;;;;;;;11.43;2.30;;;;;;;9.31;100.00;100952.94;5049635;28;20025;-61
2023/04/11 01:58:23;;;;;;;16.05;2.22;;;;;;;9.31;100.00;100939.81;5049345;28;20404;-61
2023/04/11 02:00:48;;;;;;;11.02;1.95;;;;;;;9.27;100.00;100948.66;5048983;28;20036;-61
2023/04/11 02:03:16;;;;;;;12.45;1.92;;;;;;;9.33;100.00;100948.50;5047558;28;20047;-59
2023/04/11 02:05:41;;;;;;;14.52;1.98;;;;;;;9.36;100.00;100944.91;5048076;28;20065;-61
2023/04/11 02:08:07;;;;;;;14.57;2.25;;;;;;;9.42;100.00;100947.38;5047909;28;20075;-61
2023/04/11 02:10:32;;;;;;;10.85;2.25;;;;;;;9.50;100.00;100949.81;5047181;28;20031;-59
2023/04/11 02:12:57;;;;;;;11.25;2.10;;;;;;;9.54;100.00;100947.97;5047797;28;20521;-58
2023/04/11 02:15:23;;;;;;;21.15;2.60;;;;;;;9.43;100.00;100949.13;5028840;28;20098;-61
2023/04/11 02:17:48;;;;;;;12.90;3.08;;;;;;;9.49;100.00;100953.34;5047616;28;20033;-60
2023/04/11 02:20:14;;;;;;;16.17;2.45;;;;;;;9.57;100.00;100956.63;5047786;28;20033;-60
2023/04/11 02:22:40;;;;;;;22.90;2.70;;;;;;;9.52;100.00;100979.56;5047270;28;20043;-61
2023/04/11 02:25:06;;;;;;;25.02;3.65;;;;;;;9.52;100.00;100973.44;5047070;28;20630;-60
2023/04/11 02:27:32;;;;;;;14.43;2.58;;;;;;;9.38;100.00;100947.50;5047384;28;20368;-60
2023/04/11 02:29:59;;;;;;;10.52;2.05;;;;;;;9.37;100.00;100965.06;5048166;28;20507;-58
2023/04/11 02:32:25;;;;;;;13.93;2.50;;;;;;;9.43;100.00;100992.97;5046505;28;20029;-62
2023/04/11 02:34:50;;;;;;;12.32;2.10;;;;;;;9.35;100.00;100973.00;5046929;28;20033;-60
2023/04/11 02:37:15;;;;;;;19.10;2.95;;;;;;;9.30;100.00;100969.59;5047377;28;20027;-61
2023/04/11 02:39:41;;;;;;;13.00;2.05;;;;;;;9.19;100.00;100992.69;5046831;28;20017;-54
2023/04/11 02:42:06;;;;;;;8.15;1.70;;;;;;;9.19;100.00;100987.44;5047425;28;20124;-61
2023/04/11 02:44:31;;;;;;;13.20;2.15;;;;;;;9.22;100.00;100974.22;5046990;28;20513;-59
2023/04/11 02:46:57;;;;;;;17.00;2.58;;;;;;;9.08;100.00;100964.94;5029209;28;20017;-59
2023/04/11 02:49:23;;;;;;;15.77;2.53;;;;;;;9.14;100.00;100968.28;5046397;28;20028;-58
2023/04/11 02:51:48;;;;;;;21.98;3.22;;;;;;;9.10;100.00;100999.91;5047698;28;20029;-56
2023/04/11 02:54:14;;;;;;;12.10;2.65;;;;;;;9.04;100.00;100973.78;5046372;28;20028;-57
2023/04/11 02:56:40;;;;;;;21.52;2.60;;;;;;;8.95;100.00;100985.41;5047113;28;20104;-58
2023/04/11 02:59:05;;;;;;;12.60;2.47;;;;;;;8.89;100.00;100984.69;5046810;28;20029;-59
2023/04/11 03:01:31;;;;;;;22.08;3.50;;;;;;;8.80;100.00;100994.53;5046343;28;20025;-61
2023/04/11 03:03:56;;;;;;;11.80;1.95;;;;;;;8.72;100.00;101001.72;5046534;28;20021;-60
2023/04/11 03:06:22;;;;;;;18.05;2.00;;;;;;;8.80;100.00;100980.50;5046666;28;20029;-59
2023/04/11 03:08:48;;;;;;;18.38;3.28;;;;;;;8.76;100.00;100992.84;5045946;28;20029;-61
2023/04/11 03:11:15;;;;;;;13.82;2.65;;;;;;;8.68;100.00;100981.66;5047487;28;20132;-57
2023/04/11 03:13:42;;;;;;;15.05;2.55;;;;;;;8.65;100.00;100997.50;5047397;28;20053;-61
2023/04/11 03:16:07;;;;;;;19.23;2.30;;;;;;;8.66;100.00;101036.00;5046952;28;20060;-57
2023/04/11 03:18:33;;;;;;;20.05;2.28;;;;;;;8.66;100.00;101018.47;5047475;28;20025;-61
2023/04/11 03:20:58;;;;;;;17.08;2.55;;;;;;;8.65;100.00;100981.75;5047644;28;20373;-60
2023/04/11 03:23:24;;;;;;;18.02;2.88;;;;;;;8.63;100.00;100996.66;5047357;28;20024;-59
2023/04/11 03:25:49;;;;;;;11.43;2.45;;;;;;;8.67;100.00;101006.22;5047373;28;20556;-59
2023/04/11 03:28:15;;;;;;;18.90;2.28;;;;;;;8.65;100.00;101001.00;5046480;28;20025;-59
2023/04/11 03:30:41;;;;;;;18.85;2.00;;;;;;;8.54;100.00;101017.00;5045255;28;20047;-59
2023/04/11 03:33:07;;;;;;;11.90;2.33;;;;;;;8.53;100.00;101009.13;5046396;28;20136;-59
2023/04/11 03:35:33;;;;;;;10.80;2.13;;;;;;;8.53;100.00;101012.63;5045598;28;20033;-59
2023/04/11 03:37:58;;;;;;;15.82;2.13;;;;;;;8.52;100.00;101034.50;5047440;28;20028;-56
2023/04/11 03:40:23;;;;;;;12.00;1.80;;;;;;;8.50;100.00;101028.44;5045930;28;20082;-59
2023/04/11 03:42:49;;;;;;;12.05;2.15;;;;;;;8.48;100.00;101038.09;5046896;28;20036;-57
2023/04/11 03:45:15;;;;;;;15.30;2.20;;;;;;;8.52;100.00;101017.91;5036159;28;20115;-59
2023/04/11 03:47:40;;;;;;;12.45;2.30;;;;;;;8.53;100.00;101038.88;5046767;28;20321;-57
2023/04/11 03:50:06;;;;;;;8.48;1.98;;;;;;;8.50;100.00;101028.44;5044624;28;20170;-61
2023/04/11 03:52:32;;;;;;;12.52;2.17;;;;;;;8.50;100.00;101031.06;5045800;28;20017;-57
2023/04/11 03:54:57;;;;;;;13.38;2.33;;;;;;;8.43;100.00;101045.25;5046283;28;20021;-61
2023/04/11 03:57:25;;;;;;;12.88;3.10;;;;;;;8.39;100.00;101039.19;5045614;28;20064;-57
2023/04/11 03:59:51;;;;;;;11.70;1.90;;;;;;;8.42;100.00;101046.13;5045277;28;20079;-59
2023/04/11 04:02:16;;;;;;;12.77;2.10;;;;;;;8.36;100.00;101054.16;5045137;28;20393;-57
2023/04/11 04:04:45;;;;;;;15.85;2.55;;;;;;;8.25;100.00;101088.50;5041908;28;20037;-62
2023/04/11 04:07:11;;;;;;;11.13;1.95;;;;;;;8.32;100.00;101053.34;5009363;28;20108;-58
2023/04/11 04:09:37;;;;;;;14.25;2.28;;;;;;;8.25;100.00;101070.97;5027581;28;20113;-59
2023/04/11 04:12:02;;;;;;;14.27;1.80;;;;;;;8.17;100.00;101067.63;5027250;28;20656;-58
2023/04/11 04:14:27;;;;;;;14.32;2.20;;;;;;;8.16;100.00;101068.53;5044854;28;20104;-61
2023/04/11 04:16:53;;;;;;;15.48;1.67;;;;;;;8.15;100.00;101083.41;5044507;28;20133;-60
2023/04/11 04:19:18;;;;;;;10.02;2.13;;;;;;;8.19;100.00;101068.50;5046407;28;20096;-60
2023/04/11 04:21:44;;;;;;;11.80;1.73;;;;;;;8.21;100.00;101066.69;5045943;28;20124;-60
2023/04/11 04:24:11;;;;;;;19.27;2.70;;;;;;;8.11;100.00;101076.50;5047032;28;20033;-61
2023/04/11 04:26:38;;;;;;;10.75;1.98;;;;;;;8.07;100.00;101065.19;5046870;28;20032;-57
2023/04/11 04:29:03;;;;;;;11.88;1.98;;;;;;;8.09;100.00;101113.28;5046703;28;20617;-59
2023/04/11 04:31:33;;;;;;;13.40;1.90;;;;;;;8.09;100.00;101079.16;5046592;28;20029;-60
2023/04/11 04:34:08;;;;;;;10.77;1.63;;;;;;;8.03;100.00;101083.66;5046653;28;20017;-59
2023/04/11 04:36:45;;;;;;;11.27;2.08;;;;;;;8.09;100.00;101084.41;5029387;28;20033;-58
2023/04/11 04:39:19;;;;;;;13.23;1.88;;;;;;;8.13;100.00;101090.44;5046783;28;20044;-60
2023/04/11 04:41:56;;;;;;;13.30;1.95;;;;;;;8.11;100.00;101075.63;5042538;28;20032;-60
2023/04/11 04:44:25;;;;;;;13.52;1.65;;;;;;;8.03;100.00;101083.66;5038442;28;20480;-56
2023/04/11 04:46:54;;;;;;;8.32;1.52;;;;;;;8.02;100.00;101114.28;5044774;28;20033;-64
2023/04/11 04:49:20;;;;;;;7.00;1.33;;;;;;;8.06;100.00;101084.47;5046789;28;20395;-57
2023/04/11 04:51:46;;;;;;;10.43;1.77;;;;;;;8.10;100.00;101103.66;5046865;28;20452;-58
2023/04/11 04:54:12;;;;;;;9.73;1.85;;;;;;;8.10;100.00;101098.41;5045607;28;20045;-57
2023/04/11 04:56:37;;;;;;;8.15;1.58;;;;;;;8.13;100.00;101105.34;5046165;28;20025;-59
2023/04/11 04:59:02;;;;;;;11.57;1.75;;;;;;;8.17;100.00;101105.25;5044819;28;20040;-60
2023/04/11 05:01:28;;;;;;;12.93;2.50;;;;;;;8.18;100.00;101107.00;5044899;28;20097;-62
2023/04/11 05:04:00;;;;;;;23.80;2.35;;;;;;;8.23;100.00;101106.91;5045681;28;20124;-57
2023/04/11 05:06:28;;;;;;;7.32;1.73;;;;;;;8.19;100.00;101107.88;5045931;28;20048;-59
2023/04/11 05:08:55;;;;;;;7.72;2.53;;;;;;;8.16;100.00;101116.63;5046237;28;20032;-60
2023/04/11 05:11:21;;;;;;;9.48;2.00;;;;;;;8.32;100.00;101117.22;5046640;28;20040;-62
2023/04/11 05:13:46;;;;;;;12.00;1.92;;;;;;;8.38;100.00;101120.59;5046408;28;20072;-60
2023/04/11 05:16:12;;;;;;;14.30;2.78;;;;;;;8.29;100.00;101119.91;5044915;28;20033;-57
2023/04/11 05:18:37;;;;;;;13.77;1.83;;;;;;;8.33;100.00;101121.56;5045669;28;20017;-59
2023/04/11 05:21:04;;;;;;;12.55;1.80;;;;;;;8.39;100.00;101130.22;5045882;28;20024;-58
2023/04/11 05:23:29;;;;;;;9.52;2.08;;;;;;;8.47;100.00;101138.81;5046465;28;20032;-60
2023/04/11 05:25:54;;;;;;;18.77;2.30;;;;;;;8.59;100.00;101135.97;5045870;28;20044;-62
2023/04/11 05:28:20;;;;;;;14.55;1.95;;;;;;;8.52;100.00;101134.31;5044710;28;20035;-60
2023/04/11 05:30:45;;;;;;;16.70;2.60;;;;;;;8.62;100.00;101129.78;5045544;28;20048;-55
2023/04/11 05:33:11;;;;;;;12.30;1.98;;;;;;;8.56;100.00;101135.16;5044995;28;20025;-59
2023/04/11 05:35:37;;;;;;;16.92;2.20;;;;;;;8.65;100.00;101134.09;5026271;28;20103;-58
2023/04/11 05:38:02;;;;;;;19.25;2.95;;;;;;;8.78;100.00;101153.09;5047370;28;20029;-58
2023/04/11 05:40:27;;;;;;;15.98;2.38;;;;;;;8.74;100.00;101149.69;5049363;28;20025;-61
2023/04/11 05:42:53;;;;;;;14.93;2.53;;;;;;;8.75;100.00;101151.41;5041062;28;20041;-57
2023/04/11 05:45:18;;;;;;;18.17;2.78;;;;;;;8.87;100.00;101149.41;5015781;28;20032;-61
2023/04/11 05:47:44;;;;;;;21.35;3.15;;;;;;;8.87;100.00;101144.13;5044452;28;20029;-56
2023/04/11 05:50:09;;;;;;;13.18;2.72;;;;;;;8.84;100.00;101172.22;5049142;28;20491;-63
2023/04/11 05:52:35;;;;;;;15.15;2.90;;;;;;;8.82;100.00;101168.75;5039645;28;20044;-61
2023/04/11 05:55:00;;;;;;;16.58;2.67;;;;;;;8.86;100.00;101159.06;5037388;28;20025;-61
2023/04/11 05:57:26;;;;;;;14.65;3.20;;;;;;;8.90;100.00;101165.97;5046422;28;20055;-61
2023/04/11 05:59:51;;;;;;;13.93;2.78;;;;;;;8.87;100.00;101170.41;5038919;28;20052;-62
2023/04/11 06:02:17;;;;;;;18.52;2.97;;;;;;;8.90;100.00;101183.50;5020357;28;20446;-58
2023/04/11 06:04:42;;;;;;;14.80;2.22;;;;;;;8.91;100.00;101191.34;5040772;28;20372;-57
2023/04/11 06:07:08;;;;;;;16.02;3.28;;;;;;;8.90;100.00;101175.59;5046514;28;20029;-60
2023/04/11 06:09:33;;;;;;;18.45;3.00;;;;;;;8.95;100.00;101181.66;5043744;28;20847;-59
2023/04/11 06:12:00;;;;;;;12.32;2.20;;;;;;;8.98;100.00;101194.72;5015054;28;20116;-61
2023/04/11 06:14:25;;;;;;;13.30;2.95;;;;;;;9.11;100.00;101203.19;5036326;28;20032;-60
2023/04/11 06:16:50;;;;;;;15.15;1.88;;;;;;;9.24;100.00;101190.63;5034846;28;20026;-58
2023/04/11 06:19:16;;;;;;;19.10;2.28;;;;;;;9.08;100.00;101227.81;5003740;28;20017;-57
2023/04/11 06:21:41;;;;;;;14.45;2.28;;;;;;;9.16;100.00;101203.09;5031923;28;20083;-60
2023/04/11 06:24:08;;;;;;;15.95;1.95;;;;;;;9.23;100.00;101196.81;5039603;28;20025;-59
2023/04/11 06:26:34;;;;;;;15.32;2.25;;;;;;;9.17;100.00;101204.81;5038610;28;20029;-60
2023/04/11 06:29:02;;;;;;;12.13;2.78;;;;;;;9.17;100.00;101199.56;5042661;28;20101;-59
2023/04/11 06:31:27;;;;;;;22.38;2.80;;;;;;;9.27;100.00;101195.81;5038287;28;20029;-61
2023/04/11 06:33:53;;;;;;;10.43;2.42;;;;;;;9.31;100.00;101213.28;5038191;28;20104;-60
2023/04/11 06:36:18;;;;;;;18.67;3.00;;;;;;;9.48;100.00;101215.53;5037135;28;20056;-62
2023/04/11 06:38:43;;;;;;;20.25;3.20;;;;;;;9.61;100.00;101199.44;5039169;28;20036;-62
2023/04/11 06:41:09;;;;;;;16.85;2.90;;;;;;;9.80;100.00;101231.44;5037558;28;20024;-60
2023/04/11 06:43:34;;;;;;;18.13;3.30;;;;;;;9.72;100.00;101212.31;5037394;28;20017;-57
2023/04/11 06:45:59;;;;;;;11.90;2.70;;;;;;;9.85;100.00;101203.22;5034193;28;20491;-61
2023/04/11 06:48:25;;;;;;;17.90;2.90;;;;;;;9.82;100.00;101215.63;5032018;28;20468;-58
2023/04/11 06:50:50;;;;;;;18.45;3.33;;;;;;;9.82;100.00;101215.63;5037289;28;20084;-57
2023/04/11 06:53:15;;;;;;;16.27;2.63;;;;;;;9.76;100.00;101207.88;5035973;28;20083;-61
2023/04/11 06:55:41;;;;;;;13.30;2.70;;;;;;;9.75;100.00;101233.31;5033641;28;20024;-57
2023/04/11 06:58:06;;;;;;;17.85;3.58;;;;;;;9.70;100.00;101232.56;5035516;28;20119;-58
2023/04/11 07:00:31;;;;;;;20.70;3.47;;;;;;;9.57;100.00;101239.91;5035169;28;20013;-59
2023/04/11 07:02:58;;;;;;;20.73;3.30;;;;;;;9.60;100.00;101227.53;5037714;28;20037;-57
2023/04/11 07:05:23;;;;;;;13.02;2.60;;;;;;;9.58;100.00;101229.31;5034648;28;20031;-60
2023/04/11 07:07:48;;;;;;;16.73;3.00;;;;;;;9.63;100.00;101236.25;5032753;28;20025;-55
2023/04/11 07:10:14;;;;;;;13.68;2.55;;;;;;;9.68;100.00;101243.13;5034171;28;20040;-59
2023/04/11 07:12:39;;;;;;;14.00;2.38;;;;;;;9.73;100.00;101250.91;5033959;28;20071;-58
2023/04/11 07:15:05;;;;;;;20.23;2.92;;;;;;;9.47;100.00;101255.00;5036419;28;20021;-59
2023/04/11 07:17:31;;;;;;;13.38;2.55;;;;;;;9.57;100.00;101266.22;5043030;28;20116;-62
2023/04/11 07:19:56;;;;;;;13.30;2.88;;;;;;;9.61;100.00;101266.06;5032821;28;20045;-61
2023/04/11 07:22:22;;;;;;;20.55;2.67;;;;;;;9.78;100.00;101270.09;5030830;28;20044;-60
2023/04/11 07:24:50;;;;;;;11.18;2.25;;;;;;;9.92;100.00;101276.78;5033913;28;20032;-57
2023/04/11 07:27:16;;;;;;;10.98;1.85;;;;;;;10.03;100.00;101294.97;5032048;28;20588;-58
2023/04/11 07:29:41;;;;;;;10.55;3.00;;;;;;;9.97;100.00;101277.56;5033929;28;20021;-59
2023/04/11 07:32:07;;;;;;;17.52;2.50;;;;;;;10.01;100.00;101287.09;5034552;28;20076;-56
2023/04/11 07:34:32;;;;;;;14.05;2.67;;;;;;;9.72;100.00;101281.63;5033962;28;20379;-57
2023/04/11 07:36:59;;;;;;;13.80;2.55;;;;;;;9.82;100.00;101284.91;5035695;28;20021;-57
2023/04/11 07:39:26;;;;;;;14.63;2.33;;;;;;;9.90;100.00;101278.59;5034711;28;20049;-59
2023/04/11 07:41:52;;;;;;;13.63;2.20;;;;;;;10.17;100.00;101284.09;5034609;28;20155;-61
2023/04/11 07:44:17;;;;;;;12.95;2.65;;;;;;;10.34;100.00;101281.03;5035859;28;20532;-59
2023/04/11 07:46:43;;;;;;;11.30;2.25;;;;;;;10.40;100.00;101272.09;5034481;28;20036;-56
2023/04/11 07:49:08;;;;;;;18.33;3.65;;;;;;;10.41;100.00;101284.38;5034307;28;20109;-60
2023/04/11 07:51:33;;;;;;;7.55;1.98;;;;;;;10.27;100.00;101282.97;5032918;28;20133;-56
2023/04/11 07:53:59;;;;;;;13.48;2.75;;;;;;;10.24;100.00;101272.50;5035320;28;20100;-57
2023/04/11 07:56:24;;;;;;;14.45;3.00;;;;;;;10.34;100.00;101278.38;5042497;28;20083;-59
2023/04/11 07:58:49;;;;;;;16.17;2.22;;;;;;;10.39;100.00;101292.31;5033525;28;20702;-61
2023/04/11 08:01:21;;;;;;;18.38;2.83;;;;;;;10.35;99.02;101303.81;5034723;28;20013;-59
2023/04/11 08:03:47;;;;;;;17.90;2.47;;;;;;;10.26;100.00;101306.72;5035765;28;20484;-59
2023/04/11 08:06:12;;;;;;;16.00;2.10;;;;;;;10.33;100.00;101297.75;5032667;28;20017;-58
2023/04/11 08:08:38;;;;;;;9.40;2.30;;;;;;;10.27;100.00;101298.75;5029806;28;20388;-61
2023/04/11 08:11:03;;;;;;;12.65;2.33;;;;;;;10.19;100.00;101327.91;5035719;28;20056;-58
2023/04/11 08:13:28;;;;;;;13.18;2.05;;;;;;;10.33;97.76;101324.94;5043081;28;20058;-52
2023/04/11 08:15:54;;;;;;;8.68;2.20;;;;;;;10.35;98.96;101315.22;5046196;28;20029;-58
2023/04/11 08:18:20;;;;;;;11.05;3.03;;;;;;;10.32;95.08;101320.56;5049775;28;20585;-55
2023/04/11 08:20:47;;;;;;;14.52;2.45;;;;;;;10.40;97.57;101333.56;5046664;28;20082;-58
2023/04/11 08:23:12;;;;;;;13.80;2.28;;;;;;;10.55;96.70;101332.34;5041687;28;20036;-57
2023/04/11 08:25:38;;;;;;;10.77;2.00;;;;;;;10.61;93.29;101326.91;5028682;28;20039;-59
2023/04/11 08:28:04;;;;;;;7.03;1.40;;;;;;;10.69;92.44;101325.84;5025347;28;20025;-60
2023/04/11 08:30:29;;;;;;;8.00;1.95;;;;;;;10.65;91.31;101332.94;5025229;28;20022;-57
2023/04/11 08:32:54;;;;;;;10.23;2.10;;;;;;;10.57;93.40;101348.09;5026076;28;20484;-58
2023/04/11 08:35:20;;;;;;;12.30;2.20;;;;;;;10.60;94.33;101359.41;5032985;28;20353;-60
2023/04/11 08:37:45;;;;;;;6.70;1.92;;;;;;;10.72;95.46;101339.78;5046097;28;20087;-59
2023/04/11 08:40:11;;;;;;;13.40;2.55;;;;;;;10.48;94.57;101354.47;5028713;28;20076;-58
2023/04/11 08:42:37;;;;;;;9.52;1.98;;;;;;;10.57;94.78;101354.22;5045976;28;20534;-62
2023/04/11 08:45:04;;;;;;;16.02;2.22;;;;;;;10.52;92.64;101331.53;5040944;28;20038;-60
2023/04/11 08:47:29;;;;;;;6.15;1.52;;;;;;;10.42;89.24;101360.72;5043609;28;20113;-60
2023/04/11 08:49:55;;;;;;;15.40;1.60;;;;;;;10.51;90.50;101372.84;5045389;28;20342;-57
2023/04/11 08:52:22;;;;;;;8.30;1.73;;;;;;;10.63;92.11;101347.06;5044799;28;20118;-56
2023/04/11 08:54:48;;;;;;;13.65;1.65;;;;;;;10.75;94.84;101344.13;5045474;28;20025;-56
2023/04/11 08:57:27;;;;;;;9.32;1.70;;;;;;;10.91;94.55;101343.69;5043881;28;20478;-61
2023/04/11 08:59:54;;;;;;;6.20;1.45;;;;;;;10.70;89.01;101375.88;5044679;28;20067;-60
2023/04/11 09:02:19;;;;;;;8.82;1.67;;;;;;;10.46;87.08;101367.69;5043544;28;20116;-60
2023/04/11 09:04:46;;;;;;;8.88;1.90;;;;;;;10.46;87.35;101379.97;5045880;28;20031;-54
2023/04/11 09:07:12;;;;;;;9.63;1.70;;;;;;;10.40;88.27;101359.03;5044189;28;20050;-58
2023/04/11 09:09:38;;;;;;;9.80;1.73;;;;;;;10.43;87.01;101346.66;5045012;28;20036;-58
2023/04/11 09:12:04;;;;;;;8.38;1.42;;;;;;;10.50;87.02;101363.19;5045725;28;20060;-60
2023/04/11 09:14:30;;;;;;;7.43;1.75;;;;;;;10.57;88.53;101359.50;5048079;28;20033;-54
2023/04/11 09:17:12;;;;;;;9.75;1.67;;;;;;;10.67;86.43;101369.81;5049388;28;20071;-57
2023/04/11 09:19:38;;;;;;;10.50;2.50;;;;;;;10.77;89.22;101371.28;5048212;28;20029;-59
2023/04/11 09:22:04;;;;;;;11.02;1.90;;;;;;;10.64;86.97;101354.94;5048325;28;20128;-54
2023/04/11 09:24:30;;;;;;;9.05;1.63;;;;;;;10.57;86.77;101391.13;5030111;28;20564;-58
2023/04/11 09:27:25;;;;;;;11.32;1.77;;;;;;;10.61;86.47;101370.84;5050315;28;20047;-60
2023/04/11 09:29:50;;;;;;;10.25;1.60;;;;;;;10.73;86.04;101369.66;5029947;28;20048;-57
2023/04/11 09:32:32;;;;;;;5.68;1.58;;;;;;;10.78;85.66;101373.03;5047364;28;20029;-59
2023/04/11 09:35:10;;;;;;;13.30;1.70;;;;;;;10.68;85.33;101371.53;5049249;28;20548;-61
2023/04/11 09:37:43;;;;;;;9.70;1.50;;;;;;;10.73;83.50;101383.72;5047894;28;20032;-56
2023/04/11 09:40:10;;;;;;;9.30;2.00;;;;;;;10.72;84.68;101391.66;5047476;28;20040;-57
2023/04/11 09:42:35;;;;;;;11.68;1.70;;;;;;;10.83;83.71;101394.88;5047563;28;20507;-60
2023/04/11 09:45:01;;;;;;;8.63;1.63;;;;;;;10.93;84.02;101378.81;5029832;28;20037;-60
2023/04/11 09:47:31;;;;;;;11.32;1.90;;;;;;;10.94;85.61;101378.78;5030797;28;20021;-60
2023/04/11 09:49:58;;;;;;;10.10;1.90;;;;;;;11.02;87.07;101386.47;5029567;28;20341;-61
2023/04/11 09:52:23;;;;;;;9.75;1.75;;;;;;;11.00;86.57;101372.47;5048534;28;20060;-55
2023/04/11 09:54:50;;;;;;;18.20;2.20;;;;;;;11.05;84.13;101386.38;5029077;28;20456;-56
2023/04/11 09:57:16;;;;;;;8.93;2.20;;;;;;;11.22;83.50;101378.00;5047606;28;20017;-58
2023/04/11 09:59:43;;;;;;;8.38;1.52;;;;;;;11.21;86.36;101373.66;5030299;28;20048;-60
2023/04/11 10:02:08;;;;;;;8.18;1.50;;;;;;;11.36;84.51;101375.00;5046994;28;20227;-53
2023/04/11 10:04:34;;;;;;;13.57;1.85;;;;;;;11.35;83.56;101365.31;5047011;28;20086;-61
2023/04/11 10:07:07;;;;;;;17.38;2.78;;;;;;;11.44;85.18;101368.63;5046960;28;20025;-56
2023/04/11 10:09:37;;;;;;;10.85;2.33;;;;;;;11.49;84.71;101379.88;5020459;28;20029;-58
2023/04/11 10:12:03;;;;;;;14.50;2.33;;;;;;;11.37;85.91;101382.00;5017678;28;20021;-60
2023/04/11 10:14:37;;;;;;;9.02;2.20;;;;;;;11.52;85.36;101385.09;5048966;28;20092;-57
2023/04/11 10:17:12;;;;;;;10.07;2.30;;;;;;;11.66;85.07;101362.69;5046862;28;20032;-60
2023/04/11 10:19:38;;;;;;;6.95;1.85;;;;;;;11.67;81.80;101390.81;5034583;28;20025;-60
2023/04/11 10:22:04;;;;;;;6.30;1.55;;;;;;;11.58;78.76;101377.00;5049067;28;20024;-58
2023/04/11 10:24:29;;;;;;;12.18;2.08;;;;;;;11.56;81.04;101407.84;5029688;28;20507;-59
2023/04/11 10:27:02;;;;;;;13.48;1.70;;;;;;;11.69;79.08;101387.25;5048495;28;20388;-62
2023/04/11 10:29:28;;;;;;;9.35;2.25;;;;;;;11.51;78.91;101372.81;5047144;28;20078;-58
2023/04/11 10:32:21;;;;;;;9.65;2.10;;;;;;;11.48;76.43;101404.56;5042392;28;20029;-59
2023/04/11 10:34:50;;;;;;;6.40;1.45;;;;;;;11.36;77.75;101389.94;5042927;28;20060;-61
2023/04/11 10:37:32;;;;;;;9.88;1.85;;;;;;;11.44;75.85;101413.47;5035081;28;20025;-57
2023/04/11 10:40:00;;;;;;;10.10;2.50;;;;;;;11.55;75.77;101382.34;5030483;28;20027;-61
2023/04/11 10:42:33;;;;;;;10.50;2.08;;;;;;;11.67;80.01;101382.88;5030108;28;20034;-55
2023/04/11 10:45:22;;;;;;;8.85;1.63;;;;;;;11.65;72.54;101401.41;5014084;28;20039;-60
2023/04/11 10:47:50;;;;;;;8.38;1.92;;;;;;;11.74;72.78;101387.09;5036186;28;20053;-56
2023/04/11 10:50:27;;;;;;;12.27;2.47;;;;;;;11.67;78.81;101385.53;5036051;28;20484;-60
2023/04/11 10:52:54;;;;;;;8.88;1.92;;;;;;;11.84;81.43;101370.06;5038918;28;20028;-58
2023/04/11 10:55:19;;;;;;;8.20;1.50;;;;;;;11.78;77.88;101380.81;5022801;28;20190;-59
2023/04/11 10:58:09;;;;;;;11.20;1.73;;;;;;;11.92;77.44;101387.44;5045087;28;20056;-60
2023/04/11 11:00:50;;;;;;;10.10;1.80;;;;;;;11.98;74.03;101366.13;5047174;28;20021;-53
2023/04/11 11:03:20;;;;;;;14.05;2.03;;;;;;;11.95;74.54;101396.13;5049346;28;20055;-59
2023/04/11 11:05:46;;;;;;;7.95;1.73;;;;;;;11.96;76.78;101383.78;5040832;28;20029;-57
2023/04/11 11:08:12;;;;;;;13.40;2.42;;;;;;;12.10;74.31;101391.34;5038979;28;20026;-55
2023/04/11 11:10:44;;;;;;;15.80;2.28;;;;;;;12.38;76.77;101379.88;5037233;28;20045;-55
2023/04/11 11:13:14;;;;;;;7.72;1.88;;;;;;;12.31;72.77;101378.34;5028509;28;20030;-58
2023/04/11 11:15:46;;;;;;;15.48;2.50;;;;;;;12.55;74.03;101376.66;5028068;28;20025;-54
2023/04/11 11:18:13;;;;;;;9.63;2.13;;;;;;;12.67;73.67;101390.38;5029626;28;20029;-57